Time;durP1;ratioP1;P1;durP2;ratioP2;P2;SDS_P1;SDS_P2;PMS_P1;PMS_P2;Temp;Humidity;BMP_temperature;BMP_pressure;BME280_temperature;BME280_humidity;BME280_pressure;Samples;Min_cycle;Max_cycle;Signal;HPM_P1;HPM_P2
2023/01/24 00:01:21;;;;;;;0.55;0.55;;;0.10;99.90;;;;;;5033347;28;20204;-75
2023/01/24 00:03:47;;;;;;;0.68;0.68;;;0.10;99.90;;;;;;5051217;28;20656;-75
2023/01/24 00:06:13;;;;;;;0.60;0.60;;;0.10;99.90;;;;;;5051560;28;20220;-75
2023/01/24 00:08:39;;;;;;;0.60;0.60;;;0.10;99.90;;;;;;5051596;28;20198;-75
2023/01/24 00:11:07;;;;;;;0.60;0.60;;;0.10;99.90;;;;;;5033052;28;20620;-75
2023/01/24 00:13:34;;;;;;;0.52;0.52;;;0.20;99.90;;;;;;5050992;28;20198;-75
2023/01/24 00:16:05;;;;;;;0.57;0.57;;;0.20;99.90;;;;;;5051372;28;20209;-76
2023/01/24 00:18:32;;;;;;;0.70;0.70;;;0.20;99.90;;;;;;5051190;28;20197;-75
2023/01/24 00:21:09;;;;;;;0.60;0.60;;;0.20;99.90;;;;;;5056183;28;20228;-74
2023/01/24 00:23:36;;;;;;;0.63;0.63;;;0.30;99.90;;;;;;5070997;28;20188;-78
2023/01/24 00:26:02;;;;;;;0.70;0.70;;;0.30;99.90;;;;;;5071300;28;20199;-77
2023/01/24 00:28:28;;;;;;;0.70;0.70;;;0.30;99.90;;;;;;5071153;28;20558;-74
2023/01/24 00:30:53;;;;;;;0.60;0.60;;;0.40;99.90;;;;;;5071548;28;20213;-75
2023/01/24 00:33:19;;;;;;;0.70;0.70;;;0.40;99.90;;;;;;5057075;28;20213;-74
2023/01/24 00:35:45;;;;;;;0.60;0.60;;;0.40;99.90;;;;;;5033448;28;20209;-75
2023/01/24 00:38:11;;;;;;;0.70;0.70;;;0.40;99.90;;;;;;5051464;28;20189;-75
2023/01/24 00:40:36;;;;;;;0.70;0.70;;;0.40;99.90;;;;;;5050997;28;20201;-75
2023/01/24 00:43:02;;;;;;;0.63;0.63;;;0.50;99.90;;;;;;5051211;28;20336;-74
2023/01/24 00:45:28;;;;;;;0.80;0.80;;;0.50;99.90;;;;;;5050759;28;20221;-75
2023/01/24 00:47:53;;;;;;;1.05;1.05;;;0.60;99.90;;;;;;5051242;28;20231;-76
2023/01/24 00:50:19;;;;;;;0.80;0.80;;;0.60;99.90;;;;;;5031848;28;20201;-75
2023/01/24 00:52:45;;;;;;;0.60;0.60;;;0.60;99.90;;;;;;5050937;28;20201;-75
2023/01/24 00:55:10;;;;;;;0.60;0.60;;;0.60;99.90;;;;;;5050554;28;20209;-76
2023/01/24 00:57:36;;;;;;;0.70;0.70;;;0.70;99.90;;;;;;5051000;28;20294;-75
2023/01/24 01:00:03;;;;;;;0.70;0.70;;;0.70;99.90;;;;;;5051305;28;20230;-75
2023/01/24 01:02:29;;;;;;;0.55;0.55;;;0.80;99.90;;;;;;5033454;28;20205;-75
2023/01/24 01:04:55;;;;;;;0.75;0.75;;;0.80;99.90;;;;;;5054950;28;20213;-75
2023/01/24 01:07:58;;;;;;;0.75;0.75;;;0.90;99.90;;;;;;5054845;28;20189;-75
2023/01/24 01:11:01;;;;;;;0.65;0.65;;;0.90;99.90;;;;;;5054133;28;20292;-75
2023/01/24 01:14:04;;;;;;;0.70;0.70;;;0.90;99.90;;;;;;5035726;28;20204;-75
2023/01/24 01:17:07;;;;;;;0.60;0.60;;;0.90;99.90;;;;;;5036216;28;20262;-75
2023/01/24 01:20:11;;;;;;;0.50;0.50;;;0.90;99.90;;;;;;5016503;28;20202;-76
2023/01/24 01:23:13;;;;;;;1.33;1.23;;;1.00;99.90;;;;;;5034091;28;21210;-75
2023/01/24 01:26:16;;;;;;;0.63;0.63;;;1.00;99.90;;;;;;5034028;28;20206;-75
2023/01/24 01:29:19;;;;;;;0.60;0.60;;;0.90;99.90;;;;;;5040984;28;20258;-75
2023/01/24 01:32:22;;;;;;;0.60;0.60;;;0.90;99.90;;;;;;5053426;28;20216;-74
2023/01/24 01:35:25;;;;;;;0.60;0.60;;;0.90;99.90;;;;;;5053988;28;20292;-76
2023/01/24 01:38:28;;;;;;;0.60;0.60;;;0.90;99.90;;;;;;5036313;28;20259;-75
2023/01/24 01:41:32;;;;;;;0.50;0.50;;;0.90;99.90;;;;;;5053861;28;20604;-75
2023/01/24 01:44:38;;;;;;;0.70;0.70;;;0.90;99.90;;;;;;5035817;28;20205;-75
2023/01/24 01:47:41;;;;;;;0.60;0.60;;;0.90;99.90;;;;;;5036008;28;20706;-75
2023/01/24 01:50:44;;;;;;;0.60;0.60;;;1.00;99.90;;;;;;5033528;28;20293;-75
2023/01/24 01:53:48;;;;;;;0.70;0.70;;;1.10;99.90;;;;;;5033686;28;20708;-75
2023/01/24 01:56:51;;;;;;;0.68;0.68;;;1.10;99.90;;;;;;5032470;28;20228;-75
2023/01/24 01:59:54;;;;;;;0.52;0.52;;;1.10;99.90;;;;;;5034003;28;20202;-76
2023/01/24 02:03:37;;;;;;;0.70;0.70;;;1.10;99.90;;;;;;5062991;22;20228;-80
2023/01/24 02:06:20;;;;;;;0.70;0.70;;;1.20;99.90;;;;;;5094950;28;20287;-80
2023/01/24 02:09:23;;;;;;;0.60;0.60;;;1.30;99.90;;;;;;5093266;28;20286;-80
2023/01/24 02:12:26;;;;;;;9.63;2.63;;;1.30;99.90;;;;;;5095477;28;20191;-79
2023/01/24 02:18:57;;;;;;;0.55;0.55;;;1.30;99.90;;;;;;5095359;28;20207;-80
2023/01/24 02:22:00;;;;;;;0.55;0.55;;;1.40;99.90;;;;;;5093292;28;20625;-79
2023/01/24 02:25:04;;;;;;;0.60;0.60;;;1.40;99.90;;;;;;5092526;28;20286;-78
2023/01/24 02:28:07;;;;;;;0.68;0.68;;;1.60;99.90;;;;;;5092752;28;20196;-78
2023/01/24 02:31:10;;;;;;;0.70;0.70;;;1.60;99.90;;;;;;5093120;28;20199;-80
2023/01/24 02:34:13;;;;;;;0.60;0.60;;;1.70;99.90;;;;;;5094080;28;20207;-80
2023/01/24 02:37:16;;;;;;;0.70;0.70;;;1.80;99.90;;;;;;5092414;28;20640;-80
2023/01/24 02:40:19;;;;;;;0.63;0.63;;;1.90;99.90;;;;;;5092490;28;20741;-80
2023/01/24 02:43:22;;;;;;;0.60;0.60;;;1.90;99.90;;;;;;5093827;28;20200;-80
2023/01/24 02:46:26;;;;;;;0.47;0.47;;;1.90;99.90;;;;;;5092315;28;20204;-80
2023/01/24 02:49:29;;;;;;;0.73;0.73;;;2.00;99.90;;;;;;5093911;28;20686;-80
2023/01/24 02:59:15;;;;;;;0.70;0.70;;;1.90;99.90;;;;;;5093779;28;20265;-82
2023/01/24 03:02:19;;;;;;;0.50;0.50;;;2.00;99.90;;;;;;5092596;28;20227;-80
2023/01/24 03:05:22;;;;;;;0.60;0.60;;;2.00;99.90;;;;;;5055223;28;20212;-81
2023/01/24 03:08:25;;;;;;;0.55;0.55;;;2.00;99.90;;;;;;5055276;28;20201;-81
2023/01/24 03:11:28;;;;;;;0.70;0.70;;;2.00;99.90;;;;;;5072833;28;20200;-81
2023/01/24 03:34:50;;;;;;;0.52;0.52;;;1.90;99.90;;;;;;5072240;28;20292;-80
2023/01/24 03:41:15;;;;;;;0.60;0.60;;;1.90;99.90;;;;;;5072496;28;20220;-80
2023/01/24 03:44:19;;;;;;;0.60;0.60;;;2.00;99.90;;;;;;5071557;28;20635;-80
2023/01/24 03:47:22;;;;;;;0.60;0.60;;;2.00;99.90;;;;;;5072965;28;20196;-81
2023/01/24 03:53:47;;;;;;;0.60;0.60;;;1.90;99.90;;;;;;5072981;28;20579;-80
2023/01/24 03:56:50;;;;;;;0.70;0.70;;;1.80;99.90;;;;;;5072465;28;20755;-80
2023/01/24 03:59:53;;;;;;;0.50;0.50;;;1.70;99.90;;;;;;5070469;28;20209;-81
2023/01/24 04:02:56;;;;;;;0.68;0.68;;;1.70;99.90;;;;;;5055174;28;20204;-81
2023/01/24 04:05:59;;;;;;;0.50;0.50;;;1.60;99.90;;;;;;5072562;28;20569;-80
2023/01/24 04:09:02;;;;;;;0.55;0.55;;;1.60;99.90;;;;;;5071177;28;20740;-81
2023/01/24 04:12:05;;;;;;;0.60;0.60;;;1.50;99.90;;;;;;5072396;28;20193;-81
2023/01/24 04:15:09;;;;;;;1.98;1.38;;;1.60;99.90;;;;;;5085076;28;20543;-80
2023/01/24 04:18:12;;;;;;;0.60;0.60;;;1.60;99.90;;;;;;5092419;28;20202;-81
2023/01/24 04:21:15;;;;;;;0.60;0.60;;;1.50;99.90;;;;;;5091180;28;20290;-80
2023/01/24 04:24:18;;;;;;;0.55;0.55;;;1.50;99.90;;;;;;5091686;28;20265;-80
2023/01/24 04:27:21;;;;;;;0.70;0.70;;;1.50;99.90;;;;;;5071121;28;20200;-81
2023/01/24 04:30:25;;;;;;;0.70;0.70;;;1.60;99.90;;;;;;5085946;28;20199;-80
2023/01/24 04:33:28;;;;;;;0.80;0.80;;;1.50;99.90;;;;;;5091253;28;20300;-80
2023/01/24 04:36:31;;;;;;;0.73;0.73;;;1.50;99.90;;;;;;5092436;28;20253;-81
2023/01/24 04:39:34;;;;;;;0.60;0.60;;;1.40;99.90;;;;;;5076228;28;20189;-81
2023/01/24 04:42:37;;;;;;;0.60;0.60;;;1.40;99.90;;;;;;5076128;28;20533;-81
2023/01/24 04:45:40;;;;;;;0.50;0.50;;;1.40;99.90;;;;;;5074741;28;20307;-82
2023/01/24 04:48:43;;;;;;;0.60;0.60;;;1.40;99.90;;;;;;5074611;28;20208;-81
2023/01/24 04:51:46;;;;;;;0.70;0.70;;;1.50;99.90;;;;;;5074684;28;20556;-81
2023/01/24 04:54:51;;;;;;;0.63;0.63;;;1.60;99.90;;;;;;5075946;28;20207;-81
2023/01/24 04:57:54;;;;;;;0.50;0.50;;;1.50;99.90;;;;;;5075787;28;20205;-81
2023/01/24 05:00:58;;;;;;;0.60;0.60;;;1.50;99.90;;;;;;5074479;28;20291;-80
2023/01/24 05:04:00;;;;;;;0.50;0.50;;;1.50;99.90;;;;;;5104696;28;20219;-82
2023/01/24 05:07:04;;;;;;;0.70;0.70;;;1.50;99.90;;;;;;5114884;28;20199;-79
2023/01/24 05:10:07;;;;;;;0.57;0.57;;;1.50;99.90;;;;;;5116302;28;20787;-82
2023/01/24 05:13:10;;;;;;;0.70;0.70;;;1.50;99.90;;;;;;5116061;28;20199;-82
2023/01/24 05:16:13;;;;;;;0.60;0.60;;;1.60;99.90;;;;;;5116113;28;20207;-80
2023/01/24 05:19:16;;;;;;;0.70;0.70;;;1.60;99.90;;;;;;5098671;28;20258;-82
2023/01/24 05:22:19;;;;;;;0.57;0.57;;;1.50;99.90;;;;;;5085020;28;20197;-83
2023/01/24 05:25:22;;;;;;;0.60;0.60;;;1.50;99.90;;;;;;5075049;28;20196;-81
2023/01/24 05:27:48;;;;;;;0.60;0.60;;;1.40;99.90;;;;;;5075065;28;20566;-81
2023/01/24 05:30:14;;;;;;;0.60;0.60;;;1.40;99.90;;;;;;5073926;28;20200;-83
2023/01/24 05:32:39;;;;;;;0.70;0.70;;;1.40;99.90;;;;;;5091650;28;20646;-81
2023/01/24 05:35:06;;;;;;;0.60;0.60;;;1.40;99.90;;;;;;5095304;28;20233;-79
2023/01/24 05:37:32;;;;;;;0.50;0.50;;;1.40;99.90;;;;;;5093826;28;20196;-81
2023/01/24 05:39:57;;;;;;;0.57;0.57;;;1.30;99.90;;;;;;5095220;28;20185;-80
2023/01/24 05:42:23;;;;;;;0.60;0.60;;;1.40;99.90;;;;;;5094831;28;20601;-81
2023/01/24 05:44:49;;;;;;;0.65;0.65;;;1.40;99.90;;;;;;5093785;28;20196;-81
2023/01/24 05:47:14;;;;;;;0.63;0.63;;;1.40;99.90;;;;;;5095229;28;20271;-82
2023/01/24 05:49:42;;;;;;;0.68;0.68;;;1.40;99.90;;;;;;5092068;28;20204;-80
2023/01/24 05:52:08;;;;;;;0.50;0.50;;;1.40;99.90;;;;;;5094857;28;20531;-80
2023/01/24 05:54:34;;;;;;;0.50;0.50;;;1.40;99.90;;;;;;5093493;28;20196;-80
2023/01/24 05:56:59;;;;;;;0.60;0.60;;;1.40;99.90;;;;;;5095011;28;20571;-80
2023/01/24 05:59:25;;;;;;;0.65;0.65;;;1.40;99.90;;;;;;5080583;28;20288;-80
2023/01/24 06:01:51;;;;;;;0.65;0.65;;;1.40;99.90;;;;;;5073041;28;20200;-80
2023/01/24 06:04:16;;;;;;;0.50;0.50;;;1.40;99.90;;;;;;5074716;28;20227;-79
2023/01/24 06:06:42;;;;;;;0.63;0.63;;;1.40;99.90;;;;;;5092908;28;20203;-80
2023/01/24 06:09:08;;;;;;;0.63;0.63;;;1.40;99.90;;;;;;5093673;28;20209;-83
2023/01/24 06:11:34;;;;;;;0.60;0.60;;;1.40;99.90;;;;;;5093338;28;20277;-81
2023/01/24 06:14:00;;;;;;;0.60;0.60;;;1.40;99.90;;;;;;5093498;28;20200;-81
2023/01/24 06:16:26;;;;;;;0.60;0.60;;;1.40;99.90;;;;;;5094453;28;20669;-80
2023/01/24 06:18:54;;;;;;;0.60;0.60;;;1.40;99.90;;;;;;5093384;28;20665;-82
2023/01/24 06:21:32;;;;;;;0.50;0.50;;;1.40;99.90;;;;;;5092276;28;20258;-82
2023/01/24 06:23:58;;;;;;;0.60;0.60;;;1.40;99.90;;;;;;5076448;28;20188;-81
2023/01/24 06:26:24;;;;;;;0.63;0.63;;;1.40;99.90;;;;;;5089916;28;20204;-80
2023/01/24 06:28:50;;;;;;;0.52;0.52;;;1.40;99.90;;;;;;5090854;28;20197;-81
2023/01/24 06:32:06;;;;;;;0.60;0.60;;;1.40;99.90;;;;;;5092838;28;20231;-81
2023/01/24 06:34:53;;;;;;;0.60;0.60;;;1.40;99.90;;;;;;5055073;28;20221;-81
2023/01/24 06:37:31;;;;;;;0.60;0.60;;;1.40;99.90;;;;;;5072760;28;20203;-82
2023/01/24 06:39:57;;;;;;;0.60;0.60;;;1.40;99.90;;;;;;5074059;28;20193;-81
2023/01/24 06:42:23;;;;;;;0.70;0.70;;;1.40;99.90;;;;;;5072235;28;20189;-80
2023/01/24 06:44:49;;;;;;;0.60;0.60;;;1.40;99.90;;;;;;5072372;28;20249;-81
2023/01/24 06:47:15;;;;;;;0.50;0.50;;;1.40;99.90;;;;;;5073558;28;20200;-81
2023/01/24 06:49:43;;;;;;;0.60;0.60;;;1.40;99.90;;;;;;5072173;28;20647;-82
2023/01/24 06:52:09;;;;;;;0.57;0.57;;;1.40;99.90;;;;;;5072341;28;20202;-81
2023/01/24 06:54:35;;;;;;;0.70;0.70;;;1.40;99.90;;;;;;5076541;28;20275;-81
2023/01/24 06:57:02;;;;;;;0.68;0.68;;;1.50;99.90;;;;;;5093878;28;20191;-82
2023/01/24 06:59:28;;;;;;;0.47;0.47;;;1.50;99.90;;;;;;5093507;28;20713;-81
2023/01/24 07:01:53;;;;;;;0.60;0.60;;;1.50;99.90;;;;;;5093681;28;20196;-83
2023/01/24 07:04:19;;;;;;;0.52;0.52;;;1.50;99.90;;;;;;5093340;28;20220;-83
2023/01/24 07:06:46;;;;;;;0.50;0.50;;;1.50;99.90;;;;;;5093778;28;20192;-82
2023/01/24 07:09:11;;;;;;;0.40;0.40;;;1.50;99.90;;;;;;5092328;28;20724;-81
2023/01/24 07:11:37;;;;;;;0.70;0.70;;;1.60;99.90;;;;;;5093425;28;20196;-82
2023/01/24 07:14:03;;;;;;;0.50;0.50;;;1.60;99.90;;;;;;5091964;28;20211;-81
2023/01/24 07:16:28;;;;;;;0.68;0.68;;;1.60;99.90;;;;;;5093257;28;20217;-80
2023/01/24 07:18:54;;;;;;;0.70;0.70;;;1.60;99.90;;;;;;5091874;28;20595;-81
2023/01/24 07:21:21;;;;;;;0.68;0.68;;;1.70;99.90;;;;;;5091753;28;20193;-83
2023/01/24 07:23:48;;;;;;;0.70;0.70;;;1.70;99.90;;;;;;5093428;28;20248;-83
2023/01/24 07:26:15;;;;;;;0.52;0.52;;;1.70;99.90;;;;;;5091852;28;20208;-81
2023/01/24 07:28:43;;;;;;;0.60;0.60;;;1.60;99.90;;;;;;5091874;28;20200;-82
2023/01/24 07:31:12;;;;;;;0.60;0.60;;;1.60;99.90;;;;;;5093851;28;20196;-82
2023/01/24 07:33:38;;;;;;;0.63;0.63;;;1.60;99.90;;;;;;5091359;28;20249;-81
2023/01/24 07:36:14;;;;;;;0.52;0.52;;;1.60;99.90;;;;;;5093368;28;20286;-81
2023/01/24 07:38:43;;;;;;;0.60;0.60;;;1.60;99.90;;;;;;5091959;28;20225;-82
2023/01/24 07:41:13;;;;;;;0.60;0.60;;;1.60;99.90;;;;;;5092494;28;20278;-81
2023/01/24 07:43:39;;;;;;;0.60;0.60;;;1.60;99.90;;;;;;5093613;28;20200;-81
2023/01/24 07:46:05;;;;;;;0.60;0.60;;;1.60;99.90;;;;;;5093939;28;20223;-81
2023/01/24 07:48:30;;;;;;;0.60;0.60;;;1.60;99.90;;;;;;5093346;28;20199;-79
2023/01/24 07:51:00;;;;;;;0.63;0.63;;;1.60;99.90;;;;;;5093187;28;20602;-82
2023/01/24 07:53:26;;;;;;;0.60;0.60;;;1.60;99.90;;;;;;5092211;28;20543;-82
2023/01/24 07:55:52;;;;;;;0.60;0.60;;;1.60;99.90;;;;;;5093318;28;20215;-81
2023/01/24 07:58:21;;;;;;;2.42;1.05;;;1.60;99.90;;;;;;5093352;28;20196;-81
2023/01/24 08:00:46;;;;;;;0.60;0.60;;;1.60;99.90;;;;;;5091954;28;20642;-80
2023/01/24 08:03:12;;;;;;;0.65;0.65;;;1.60;99.90;;;;;;5093208;28;20306;-81
2023/01/24 08:05:38;;;;;;;0.60;0.60;;;1.60;99.90;;;;;;5091779;28;20215;-79
2023/01/24 08:08:04;;;;;;;0.70;0.70;;;1.70;99.90;;;;;;5075187;28;20412;-80
2023/01/24 08:10:29;;;;;;;0.60;0.60;;;1.70;99.90;;;;;;5093006;28;20576;-81
2023/01/24 08:12:56;;;;;;;0.50;0.50;;;1.70;99.90;;;;;;5094135;28;20248;-82
2023/01/24 08:15:22;;;;;;;0.50;0.50;;;1.70;99.90;;;;;;5077567;28;20200;-79
2023/01/24 08:17:48;;;;;;;0.55;0.55;;;1.70;99.90;;;;;;5082085;28;20196;-81
2023/01/24 08:20:14;;;;;;;0.60;0.60;;;1.70;99.90;;;;;;5075611;28;20562;-81
2023/01/24 08:22:40;;;;;;;0.60;0.60;;;1.70;99.90;;;;;;5087676;28;20203;-82
2023/01/24 08:25:07;;;;;;;0.60;0.60;;;1.80;99.90;;;;;;5097204;28;20274;-81
2023/01/24 08:27:35;;;;;;;0.50;0.50;;;1.80;99.90;;;;;;5095712;28;20688;-81
2023/01/24 08:30:03;;;;;;;0.68;0.68;;;1.80;99.90;;;;;;5096025;28;20249;-82
2023/01/24 08:32:28;;;;;;;0.80;0.80;;;1.80;99.90;;;;;;5095917;28;20658;-80
2023/01/24 08:34:54;;;;;;;0.52;0.52;;;1.80;99.90;;;;;;5095834;28;20253;-81
2023/01/24 08:37:20;;;;;;;0.52;0.52;;;1.80;99.90;;;;;;5095724;28;20628;-80
2023/01/24 08:39:45;;;;;;;0.50;0.50;;;1.80;99.90;;;;;;5097162;28;20229;-81
2023/01/24 08:42:11;;;;;;;0.60;0.60;;;1.80;99.90;;;;;;5096316;28;20631;-81
2023/01/24 08:44:37;;;;;;;0.68;0.68;;;1.80;99.90;;;;;;5095540;28;20192;-81
2023/01/24 08:47:03;;;;;;;0.50;0.50;;;1.90;99.90;;;;;;5094922;28;20184;-80
2023/01/24 08:49:28;;;;;;;0.60;0.60;;;1.90;99.90;;;;;;5096159;28;20196;-81
2023/01/24 08:52:00;;;;;;;0.70;0.70;;;1.90;99.90;;;;;;5098804;28;20192;-81
2023/01/24 08:54:34;;;;;;;0.75;0.75;;;1.90;99.90;;;;;;5099649;28;20192;-80
2023/01/24 08:57:03;;;;;;;0.50;0.50;;;1.90;99.90;;;;;;5099702;28;20195;-81
2023/01/24 08:59:30;;;;;;;0.45;0.45;;;1.90;99.90;;;;;;5097444;28;20191;-82
2023/01/24 09:01:56;;;;;;;0.60;0.60;;;1.90;99.90;;;;;;5096170;28;20200;-80
2023/01/24 09:04:26;;;;;;;0.70;0.70;;;1.90;99.90;;;;;;5095920;28;20238;-80
2023/01/24 09:06:52;;;;;;;0.60;0.60;;;1.90;99.90;;;;;;5096150;28;20215;-81
2023/01/24 09:09:18;;;;;;;0.60;0.60;;;1.90;99.90;;;;;;5096310;28;20200;-80
2023/01/24 09:11:44;;;;;;;0.60;0.60;;;1.90;99.90;;;;;;5076898;28;20224;-82
2023/01/24 09:14:13;;;;;;;0.60;0.60;;;1.90;99.90;;;;;;5076571;28;20200;-81
2023/01/24 09:16:42;;;;;;;0.50;0.50;;;1.90;99.90;;;;;;5075594;28;20220;-80
2023/01/24 09:19:10;;;;;;;0.50;0.50;;;1.90;99.90;;;;;;5094447;28;20224;-80
2023/01/24 09:21:36;;;;;;;0.52;0.52;;;2.00;99.90;;;;;;5095659;28;20192;-80
2023/01/24 09:24:02;;;;;;;2.25;1.10;;;2.00;99.90;;;;;;5076596;28;20200;-79
2023/01/24 09:26:27;;;;;;;0.60;0.60;;;1.90;99.90;;;;;;5094010;28;20196;-80
2023/01/24 09:28:53;;;;;;;0.60;0.60;;;2.00;99.90;;;;;;5094995;28;20550;-80
2023/01/24 09:31:19;;;;;;;0.50;0.50;;;2.00;99.90;;;;;;5094990;28;20233;-79
2023/01/24 09:33:44;;;;;;;0.60;0.60;;;2.00;99.90;;;;;;5095081;28;20274;-81
2023/01/24 09:36:10;;;;;;;0.52;0.52;;;2.00;99.90;;;;;;5094871;28;20302;-80
2023/01/24 09:38:36;;;;;;;0.85;0.85;;;1.90;99.90;;;;;;5095689;28;20195;-84
2023/01/24 09:41:11;;;;;;;0.70;0.70;;;1.90;99.90;;;;;;5095690;28;20278;-81
2023/01/24 09:43:48;;;;;;;0.60;0.60;;;2.00;99.90;;;;;;5094153;28;20191;-79
2023/01/24 09:46:20;;;;;;;1.10;1.10;;;2.00;99.90;;;;;;5094607;28;20191;-79
2023/01/24 09:48:49;;;;;;;0.85;0.85;;;2.00;99.90;;;;;;5094472;28;20215;-79
2023/01/24 09:51:27;;;;;;;0.63;0.63;;;2.10;99.90;;;;;;5095650;28;20188;-79
2023/01/24 09:53:59;;;;;;;0.60;0.60;;;2.10;99.90;;;;;;5095391;28;20200;-79
2023/01/24 09:56:38;;;;;;;0.80;0.80;;;2.10;99.90;;;;;;5094732;28;20682;-79
2023/01/24 09:59:26;;;;;;;1.08;1.08;;;2.10;99.90;;;;;;5095508;28;20591;-79
2023/01/24 10:01:52;;;;;;;1.55;1.45;;;2.10;99.90;;;;;;5094034;28;20333;-78
2023/01/24 10:04:34;;;;;;;0.68;0.68;;;2.20;99.90;;;;;;5093759;28;20228;-79
2023/01/24 10:07:42;;;;;;;0.50;0.50;;;2.20;99.90;;;;;;5081601;28;20205;-79
2023/01/24 10:10:14;;;;;;;1.42;1.33;;;2.20;99.90;;;;;;5075018;28;20220;-79
2023/01/24 10:13:07;;;;;;;0.60;0.60;;;2.20;99.90;;;;;;5073527;28;20606;-79
2023/01/24 10:15:48;;;;;;;0.70;0.70;;;2.20;99.90;;;;;;5089829;28;20566;-79
2023/01/24 10:18:38;;;;;;;0.52;0.52;;;2.30;99.90;;;;;;5095049;28;20192;-79
2023/01/24 10:21:22;;;;;;;0.52;0.52;;;2.30;99.90;;;;;;5095213;28;20563;-79
2023/01/24 10:23:52;;;;;;;0.60;0.60;;;2.30;99.90;;;;;;5093792;28;20189;-79
2023/01/24 10:26:21;;;;;;;0.57;0.57;;;2.30;99.90;;;;;;5094810;28;20237;-79
2023/01/24 10:28:52;;;;;;;0.70;0.70;;;2.40;99.90;;;;;;5093550;28;20227;-79
2023/01/24 10:31:42;;;;;;;0.70;0.70;;;2.40;99.90;;;;;;5093584;28;20196;-79
2023/01/24 10:34:32;;;;;;;0.50;0.50;;;2.40;99.90;;;;;;5093327;28;20674;-79
2023/01/24 10:37:16;;;;;;;0.60;0.60;;;2.40;99.90;;;;;;5094869;28;20204;-79
2023/01/24 10:39:43;;;;;;;3.40;1.45;;;2.50;99.90;;;;;;5093052;28;20196;-79
2023/01/24 10:42:30;;;;;;;0.70;0.70;;;2.40;99.90;;;;;;5093459;28;20218;-79
2023/01/24 10:45:01;;;;;;;0.70;0.70;;;2.50;99.90;;;;;;5094276;28;20212;-79
2023/01/24 10:47:29;;;;;;;0.70;0.70;;;2.40;99.90;;;;;;5093015;28;20192;-79
2023/01/24 10:50:00;;;;;;;0.60;0.60;;;2.40;99.90;;;;;;5093955;28;20853;-79
2023/01/24 10:52:27;;;;;;;0.80;0.80;;;2.40;99.90;;;;;;5092999;28;20188;-78
2023/01/24 10:54:58;;;;;;;0.90;0.90;;;2.40;99.90;;;;;;5093039;28;20656;-79
2023/01/24 10:57:26;;;;;;;0.70;0.70;;;2.40;99.90;;;;;;5092889;28;20196;-80
2023/01/24 10:59:52;;;;;;;0.60;0.60;;;2.50;99.90;;;;;;5093303;28;20188;-78
2023/01/24 11:02:25;;;;;;;0.50;0.50;;;2.50;99.90;;;;;;5093565;28;20192;-79
2023/01/24 11:05:03;;;;;;;0.75;0.75;;;2.60;99.90;;;;;;5094000;28;20242;-79
2023/01/24 11:07:32;;;;;;;0.70;0.70;;;2.60;99.90;;;;;;5093888;28;20235;-80
2023/01/24 11:10:22;;;;;;;0.63;0.63;;;2.60;99.90;;;;;;5075485;28;20205;-79
2023/01/24 11:12:59;;;;;;;0.60;0.60;;;2.70;99.90;;;;;;5092142;28;20204;-79
2023/01/24 11:15:48;;;;;;;0.60;0.60;;;2.70;99.90;;;;;;5092396;28;20208;-80
2023/01/24 11:18:27;;;;;;;0.40;0.40;;;2.70;99.90;;;;;;5088897;28;20192;-81
2023/01/24 11:21:19;;;;;;;0.50;0.50;;;2.70;99.90;;;;;;5073787;28;20249;-79
2023/01/24 11:23:45;;;;;;;0.63;0.63;;;2.70;99.90;;;;;;5072462;28;20227;-79
2023/01/24 11:26:27;;;;;;;0.65;0.65;;;2.70;99.90;;;;;;5073418;28;20197;-79
2023/01/24 11:29:27;;;;;;;0.60;0.60;;;2.70;99.90;;;;;;5073165;28;20273;-79
2023/01/24 11:32:31;;;;;;;0.60;0.60;;;2.70;99.90;;;;;;5085176;28;20263;-80
2023/01/24 11:35:15;;;;;;;0.55;0.55;;;2.80;99.90;;;;;;5071601;28;20192;-79
2023/01/24 11:38:12;;;;;;;0.60;0.60;;;2.80;99.90;;;;;;5106100;28;20214;-79
2023/01/24 11:40:42;;;;;;;0.60;0.60;;;2.80;99.90;;;;;;5092126;28;20199;-79
2023/01/24 11:43:33;;;;;;;0.60;0.60;;;2.80;99.90;;;;;;5092710;28;20192;-79
2023/01/24 11:46:04;;;;;;;0.60;0.60;;;2.80;99.90;;;;;;5091612;28;20250;-80
2023/01/24 11:48:53;;;;;;;1.15;1.08;;;2.80;99.90;;;;;;5093347;28;20252;-80
2023/01/24 11:51:37;;;;;;;0.50;0.50;;;2.80;99.90;;;;;;5092092;28;20196;-80
2023/01/24 11:54:13;;;;;;;0.50;0.50;;;2.90;99.90;;;;;;5092466;28;20204;-79
2023/01/24 11:57:01;;;;;;;0.52;0.52;;;2.90;99.90;;;;;;5093326;28;20239;-79
2023/01/24 11:59:58;;;;;;;0.60;0.60;;;2.90;99.90;;;;;;5081529;28;20271;-79
2023/01/24 12:02:47;;;;;;;0.50;0.50;;;3.10;99.90;;;;;;5072788;28;20319;-79
2023/01/24 12:05:28;;;;;;;0.60;0.60;;;3.10;99.90;;;;;;5054302;28;20253;-82
2023/01/24 12:08:27;;;;;;;0.55;0.55;;;3.10;99.90;;;;;;5072900;28;20207;-79
2023/01/24 12:11:02;;;;;;;0.57;0.57;;;3.20;99.90;;;;;;5071980;28;20571;-80
2023/01/24 12:13:54;;;;;;;0.47;0.47;;;3.30;99.90;;;;;;5072784;28;20203;-79
2023/01/24 12:16:35;;;;;;;0.47;0.47;;;3.30;99.90;;;;;;5072573;28;20344;-80
2023/01/24 12:19:22;;;;;;;0.60;0.60;;;3.40;99.90;;;;;;5051276;28;20251;-79
2023/01/24 12:21:50;;;;;;;0.52;0.52;;;3.40;99.90;;;;;;5035318;28;20186;-80
2023/01/24 12:24:22;;;;;;;0.68;0.68;;;3.40;99.90;;;;;;5052688;28;20204;-80
2023/01/24 12:26:57;;;;;;;0.63;0.63;;;3.50;99.90;;;;;;5035241;28;20193;-80
2023/01/24 12:29:44;;;;;;;0.60;0.60;;;3.50;99.90;;;;;;5052597;28;20550;-79
2023/01/24 12:32:36;;;;;;;0.50;0.50;;;3.60;99.90;;;;;;5056797;28;20197;-80
2023/01/24 12:35:21;;;;;;;0.50;0.50;;;3.60;99.90;;;;;;5054842;28;20216;-79
2023/01/24 12:38:11;;;;;;;0.45;0.45;;;3.60;99.90;;;;;;5072573;28;20644;-80
2023/01/24 12:40:51;;;;;;;0.60;0.60;;;3.70;99.90;;;;;;5072553;28;20200;-80
2023/01/24 12:43:22;;;;;;;0.68;0.68;;;3.70;99.90;;;;;;5054572;28;20220;-79
2023/01/24 12:46:30;;;;;;;0.70;0.70;;;3.70;99.90;;;;;;5054319;28;20658;-80
2023/01/24 12:49:17;;;;;;;0.60;0.60;;;3.70;99.90;;;;;;5072546;28;20208;-79
2023/01/24 12:51:53;;;;;;;0.50;0.50;;;3.70;99.90;;;;;;5054388;28;20220;-79
2023/01/24 12:54:40;;;;;;;1.35;0.98;;;3.80;99.90;;;;;;5072234;28;20189;-79
2023/01/24 12:57:26;;;;;;;0.43;0.43;;;3.70;99.90;;;;;;5034772;28;20279;-79
2023/01/24 12:59:52;;;;;;;0.60;0.60;;;3.70;99.90;;;;;;5054840;28;20209;-79
2023/01/24 13:02:37;;;;;;;0.60;0.60;;;3.60;99.90;;;;;;5077153;28;20656;-80
2023/01/24 13:05:14;;;;;;;0.60;0.60;;;3.70;99.90;;;;;;5056334;28;20210;-79
2023/01/24 13:08:21;;;;;;;0.60;0.60;;;3.80;99.90;;;;;;5054613;28;20218;-79
2023/01/24 13:11:28;;;;;;;0.50;0.50;;;3.80;99.90;;;;;;5007164;28;20275;-79
2023/01/24 13:14:12;;;;;;;0.50;0.50;;;3.90;99.90;;;;;;5054714;28;20197;-81
2023/01/24 13:16:44;;;;;;;0.70;0.70;;;4.00;99.90;;;;;;5054203;28;20671;-79
2023/01/24 13:19:42;;;;;;;0.60;0.60;;;4.00;99.90;;;;;;5076075;28;20189;-79
2023/01/24 13:22:30;;;;;;;0.50;0.50;;;3.90;99.90;;;;;;5052175;28;20737;-78
2023/01/24 13:25:16;;;;;;;0.60;0.60;;;3.80;99.90;;;;;;5075530;28;20220;-79
2023/01/24 13:28:07;;;;;;;1.33;1.23;;;3.80;99.90;;;;;;5057203;28;20192;-79
2023/01/24 13:30:57;;;;;;;0.50;0.50;;;3.80;99.90;;;;;;5054272;28;20205;-79
2023/01/24 13:33:53;;;;;;;0.50;0.50;;;3.70;99.90;;;;;;5055364;28;20205;-79
2023/01/24 13:36:22;;;;;;;0.50;0.50;;;3.70;99.90;;;;;;5035633;28;20539;-79
2023/01/24 13:38:49;;;;;;;0.57;0.57;;;3.60;99.90;;;;;;5037582;28;20653;-80
2023/01/24 13:41:18;;;;;;;0.68;0.68;;;3.50;99.90;;;;;;5055564;28;20560;-80
2023/01/24 13:43:46;;;;;;;0.80;0.80;;;3.40;99.90;;;;;;5037524;28;20200;-80
2023/01/24 13:46:15;;;;;;;0.40;0.40;;;3.40;99.90;;;;;;5054925;28;20211;-80
2023/01/24 13:48:41;;;;;;;0.70;0.70;;;3.40;99.90;;;;;;5054871;28;20194;-81
2023/01/24 13:51:34;;;;;;;0.63;0.63;;;3.30;99.90;;;;;;5058978;28;20281;-81
2023/01/24 13:54:20;;;;;;;0.55;0.55;;;3.30;99.90;;;;;;5058521;28;20212;-81
2023/01/24 13:57:21;;;;;;;0.60;0.60;;;3.20;99.90;;;;;;5057957;28;20220;-79
2023/01/24 14:00:08;;;;;;;0.60;0.60;;;3.10;99.90;;;;;;5074653;28;20192;-78
2023/01/24 14:02:50;;;;;;;0.60;0.60;;;3.10;99.90;;;;;;5057435;28;20564;-77
2023/01/24 14:05:34;;;;;;;0.57;0.57;;;3.10;99.90;;;;;;5094951;28;20562;-78
2023/01/24 14:08:21;;;;;;;0.70;0.70;;;3.20;99.90;;;;;;5095171;28;20563;-77
2023/01/24 14:10:54;;;;;;;0.50;0.50;;;3.10;99.90;;;;;;5076078;28;20200;-77
2023/01/24 14:13:42;;;;;;;0.63;0.63;;;3.10;99.90;;;;;;5076669;28;20206;-78
2023/01/24 14:16:36;;;;;;;0.50;0.50;;;3.00;99.90;;;;;;5076637;28;20256;-78
2023/01/24 14:19:05;;;;;;;0.57;0.57;;;3.00;99.90;;;;;;5048359;28;20710;-78
2023/01/24 14:21:49;;;;;;;0.50;0.50;;;3.00;99.90;;;;;;5074233;28;20191;-78
2023/01/24 14:25:05;;;;;;;0.57;0.57;;;3.00;99.90;;;;;;5074235;28;20185;-78
2023/01/24 14:27:46;;;;;;;0.60;0.60;;;3.00;99.90;;;;;;5049256;28;20201;-78
2023/01/24 14:30:18;;;;;;;0.70;0.70;;;3.00;99.90;;;;;;5074513;28;20297;-79
2023/01/24 14:32:43;;;;;;;0.57;0.57;;;2.90;99.90;;;;;;5056284;28;20674;-78
2023/01/24 14:35:17;;;;;;;0.60;0.60;;;2.90;99.90;;;;;;5056452;28;20244;-78
2023/01/24 14:37:44;;;;;;;0.43;0.43;;;2.90;99.90;;;;;;5056291;28;20284;-78
2023/01/24 14:40:22;;;;;;;0.50;0.50;;;2.90;99.90;;;;;;5056225;28;20197;-79
2023/01/24 14:43:01;;;;;;;0.60;0.60;;;3.00;99.90;;;;;;5056173;28;20674;-78
2023/01/24 14:45:29;;;;;;;0.50;0.50;;;3.00;99.90;;;;;;5073794;28;20559;-77